createdAt,value
2022-12-15T00:00:35.998Z,8.10
2022-12-15T00:06:00.742Z,6.67
2022-12-15T00:11:24.841Z,6.43
2022-12-15T00:22:12.214Z,5.15
2022-12-15T00:27:36.746Z,5.57
2022-12-15T00:33:02.623Z,4.23
2022-12-15T00:38:33.357Z,5.43
2022-12-15T00:43:41.005Z,5.50
2022-12-15T00:48:49.070Z,6.73
2022-12-15T00:54:17.836Z,9.87
2022-12-15T00:59:39.672Z,6.47
2022-12-15T01:05:04.279Z,7.73
2022-12-15T01:10:29.228Z,6.00
2022-12-15T01:15:58.902Z,5.87
2022-12-15T01:21:09.847Z,6.67
2022-12-15T01:26:16.821Z,8.67
2022-12-15T01:31:23.575Z,7.80
2022-12-15T01:36:30.412Z,9.73
2022-12-15T01:41:37.363Z,6.93
2022-12-15T01:46:44.448Z,7.33
2022-12-15T01:51:55.368Z,5.93
2022-12-15T01:57:14.100Z,7.13
2022-12-15T02:02:24.843Z,6.73
2022-12-15T02:07:31.643Z,7.30
2022-12-15T02:12:42.923Z,7.30
2022-12-15T02:18:02.897Z,8.10
2022-12-15T02:23:48.252Z,8.27
2022-12-15T02:29:47.600Z,8.13
2022-12-15T02:35:01.938Z,7.07
2022-12-15T02:40:11.257Z,7.47
2022-12-15T02:45:31.168Z,7.27
2022-12-15T02:51:22.659Z,8.83
2022-12-15T02:56:39.345Z,7.67
2022-12-15T03:01:58.825Z,9.73
2022-12-15T03:07:09.831Z,9.20
2022-12-15T03:12:16.575Z,8.70
2022-12-15T03:17:23.306Z,7.63
2022-12-15T03:22:30.013Z,9.13
2022-12-15T03:27:38.409Z,7.23
2022-12-15T03:32:45.117Z,6.60
2022-12-15T03:37:51.826Z,15.73
2022-12-15T03:42:59.055Z,9.00
2022-12-15T03:48:05.843Z,114.63
2022-12-15T03:53:12.847Z,14.83
2022-12-15T03:58:20.283Z,16.97
2022-12-15T04:03:27.152Z,9.30
2022-12-15T04:08:33.846Z,9.00
2022-12-15T04:13:40.653Z,6.70
2022-12-15T04:18:47.347Z,7.27
2022-12-15T04:24:11.637Z,6.93
2022-12-15T04:29:36.099Z,9.00
2022-12-15T04:35:00.867Z,7.73
2022-12-15T04:40:26.939Z,9.20
2022-12-15T04:45:51.726Z,6.43
2022-12-15T04:51:16.383Z,8.63
2022-12-15T04:56:40.771Z,9.00
2022-12-15T05:02:05.184Z,8.47
2022-12-15T05:07:29.854Z,11.13
2022-12-15T05:12:54.191Z,8.43
2022-12-15T05:18:18.310Z,9.07
2022-12-15T05:29:05.781Z,10.68
2022-12-15T05:34:12.525Z,17.93
2022-12-15T05:39:19.256Z,8.67
2022-12-15T05:44:27.495Z,14.17
2022-12-15T05:49:34.417Z,16.33
2022-12-15T05:54:41.141Z,17.57
2022-12-15T05:59:47.849Z,16.17
2022-12-15T06:04:54.732Z,21.10
2022-12-15T06:10:01.494Z,21.83
2022-12-15T06:15:09.425Z,19.40
2022-12-15T06:20:16.268Z,20.80
2022-12-15T06:25:22.941Z,19.37
2022-12-15T06:30:29.643Z,17.57
2022-12-15T06:35:38.927Z,11.47
2022-12-15T06:40:45.849Z,11.80
2022-12-15T06:45:53.178Z,8.67
2022-12-15T06:51:10.803Z,7.97
2022-12-15T06:56:33.077Z,5.47
2022-12-15T07:01:36.609Z,62.80
2022-12-15T07:06:43.603Z,7.87
2022-12-15T07:11:51.945Z,25.63
2022-12-15T07:16:59.262Z,66.43
2022-12-15T07:22:05.963Z,11.10
2022-12-15T07:27:12.964Z,3.53
2022-12-15T07:32:19.954Z,5.17
2022-12-15T07:37:26.648Z,3.87
2022-12-15T07:42:34.502Z,3.57
2022-12-15T07:47:41.219Z,89.00
2022-12-15T07:52:49.395Z,7.53
2022-12-15T07:57:56.064Z,5.47
2022-12-15T08:03:04.490Z,4.17
2022-12-15T08:08:15.312Z,6.03
2022-12-15T08:13:44.929Z,5.03
2022-12-15T08:18:28.436Z,5.20
2022-12-15T08:23:35.927Z,6.43
2022-12-15T08:28:43.254Z,8.00
2022-12-15T08:33:50.767Z,9.23
2022-12-15T08:39:00.961Z,7.90
2022-12-15T08:44:07.666Z,8.43
2022-12-15T08:49:21.206Z,5.17
2022-12-15T08:54:23.265Z,5.57
2022-12-15T08:59:30.031Z,7.27
2022-12-15T09:04:36.804Z,7.10
2022-12-15T09:09:43.550Z,8.03
2022-12-15T09:14:50.225Z,9.67
2022-12-15T09:19:56.902Z,7.43
2022-12-15T09:25:04.015Z,9.37
2022-12-15T09:30:11.657Z,10.57
2022-12-15T09:35:18.370Z,9.77
2022-12-15T09:40:26.199Z,11.83
2022-12-15T09:45:37.389Z,9.20
2022-12-15T09:50:48.085Z,10.17
2022-12-15T09:55:59.627Z,14.60
2022-12-15T10:01:55.929Z,15.90
2022-12-15T10:07:24.897Z,17.97
2022-12-15T10:12:35.014Z,19.33
2022-12-15T10:17:51.526Z,15.30
2022-12-15T10:23:02.725Z,14.27
2022-12-15T10:28:19.631Z,14.93
2022-12-15T10:33:36.342Z,14.60
2022-12-15T10:43:57.679Z,15.85
2022-12-15T10:49:14.610Z,13.83
2022-12-15T10:54:21.310Z,14.50
2022-12-15T10:59:39.359Z,14.00
2022-12-15T11:05:00.720Z,16.03
2022-12-15T11:10:20.562Z,17.97
2022-12-15T11:15:47.115Z,18.40
2022-12-15T11:20:59.909Z,17.93
2022-12-15T11:26:49.170Z,18.40
2022-12-15T11:32:03.107Z,21.30
2022-12-15T11:37:39.580Z,22.73
2022-12-15T11:42:56.480Z,21.67
2022-12-15T11:48:19.073Z,22.00
2022-12-15T11:53:53.953Z,19.47
2022-12-15T11:59:16.940Z,22.23
2022-12-15T12:04:34.039Z,26.03
2022-12-15T12:09:45.408Z,26.07
2022-12-15T12:15:26.327Z,24.80
2022-12-15T12:20:43.356Z,25.77
2022-12-15T12:26:06.360Z,26.37
2022-12-15T12:31:20.050Z,27.53
2022-12-15T12:36:26.489Z,25.57
2022-12-15T12:41:43.589Z,29.70
2022-12-15T12:46:53.752Z,30.50
2022-12-15T12:52:06.253Z,29.13
2022-12-15T12:57:23.153Z,25.83
2022-12-15T13:02:38.421Z,23.77
2022-12-15T13:07:48.186Z,22.97
2022-12-15T13:12:59.845Z,26.43
2022-12-15T13:18:22.653Z,21.77
2022-12-15T13:23:34.353Z,28.27
2022-12-15T13:28:47.193Z,25.50
2022-12-15T13:34:04.260Z,45.17
2022-12-15T13:39:33.349Z,47.53
2022-12-15T13:44:48.781Z,29.93
2022-12-15T13:50:17.210Z,31.27
2022-12-15T13:55:31.566Z,38.37
2022-12-15T14:00:40.590Z,43.83
2022-12-15T14:05:56.927Z,36.67
2022-12-15T14:11:22.349Z,32.80
2022-12-15T14:16:22.708Z,38.03
2022-12-15T14:21:30.746Z,29.63
2022-12-15T14:26:37.413Z,31.13
2022-12-15T14:31:50.777Z,37.43
2022-12-15T14:37:02.532Z,41.80
2022-12-15T14:42:16.341Z,182.47
2022-12-15T14:52:40.307Z,43.08
2022-12-15T14:57:48.734Z,40.00
2022-12-15T15:03:09.926Z,16.43
2022-12-15T15:08:34.411Z,44.83
2022-12-15T15:13:43.422Z,42.73
2022-12-15T15:18:56.400Z,41.50
2022-12-15T15:24:19.840Z,43.30
2022-12-15T15:29:41.590Z,40.33
2022-12-15T15:34:48.876Z,43.20
2022-12-15T15:39:58.560Z,44.27
2022-12-15T15:45:05.434Z,38.47
2022-12-15T15:50:18.909Z,43.20
2022-12-15T15:55:37.805Z,49.27
2022-12-15T16:00:40.417Z,45.40
2022-12-15T16:05:47.438Z,50.40
2022-12-15T16:10:54.754Z,46.13
2022-12-15T16:16:01.619Z,47.90
2022-12-15T16:21:11.977Z,48.27
2022-12-15T16:26:23.342Z,45.97
2022-12-15T16:31:41.621Z,48.90
2022-12-15T16:36:46.941Z,44.83
2022-12-15T16:41:56.228Z,50.03
2022-12-15T16:47:02.975Z,49.57
2022-12-15T16:52:21.703Z,50.77
2022-12-15T16:57:28.431Z,52.67
2022-12-15T17:02:37.689Z,53.70
2022-12-15T17:07:47.861Z,51.27
2022-12-15T17:12:58.386Z,47.80
2022-12-15T17:18:06.818Z,54.77
2022-12-15T17:23:20.928Z,51.60
2022-12-15T17:28:32.843Z,46.83
2022-12-15T17:33:39.620Z,48.27
2022-12-15T17:38:46.728Z,49.57
2022-12-15T17:44:09.804Z,46.23
2022-12-15T17:49:02.136Z,46.87
2022-12-15T17:54:12.715Z,50.10
2022-12-15T17:59:22.324Z,48.43
2022-12-15T18:04:29.098Z,48.03
2022-12-15T18:09:36.682Z,51.67
2022-12-15T18:14:43.596Z,50.73
2022-12-15T18:19:50.627Z,49.43
2022-12-15T18:24:57.838Z,48.27
2022-12-15T18:30:04.590Z,51.43
2022-12-15T18:35:22.788Z,70.03
2022-12-15T18:40:32.215Z,51.93
2022-12-15T18:45:38.974Z,89.33
2022-12-15T18:50:47.098Z,140.07
2022-12-15T18:55:54.042Z,48.33
2022-12-15T19:01:02.762Z,53.37
2022-12-15T19:06:37.215Z,51.87
2022-12-15T19:11:49.278Z,53.60
2022-12-15T19:17:13.872Z,46.77
2022-12-15T19:22:30.283Z,51.20
2022-12-15T19:27:37.047Z,49.13
2022-12-15T19:32:43.935Z,47.13
2022-12-15T19:37:51.093Z,49.33
2022-12-15T19:42:58.659Z,52.83
2022-12-15T19:48:07.624Z,47.87
2022-12-15T19:53:26.807Z,53.30
2022-12-15T19:58:36.436Z,48.90
2022-12-15T20:03:45.765Z,49.63
2022-12-15T20:08:57.000Z,47.13
2022-12-15T20:14:06.388Z,49.23
2022-12-15T20:19:13.538Z,51.03
2022-12-15T20:24:21.810Z,49.80
2022-12-15T20:29:36.972Z,51.43
2022-12-15T20:34:44.058Z,51.77
2022-12-15T20:39:56.993Z,52.77
2022-12-15T20:45:00.937Z,49.90
2022-12-15T20:50:19.649Z,52.67
2022-12-15T20:55:26.776Z,49.17
2022-12-15T21:00:33.710Z,52.10
2022-12-15T21:05:41.216Z,51.70
2022-12-15T21:10:49.687Z,57.77
2022-12-15T21:15:57.452Z,56.17
2022-12-15T21:21:06.328Z,51.87
2022-12-15T21:26:13.941Z,55.73
2022-12-15T21:31:21.259Z,51.10
2022-12-15T21:36:29.620Z,52.47
2022-12-15T21:41:37.419Z,54.30
2022-12-15T21:46:44.724Z,51.60
2022-12-15T21:51:58.954Z,53.83
2022-12-15T21:57:07.814Z,53.07
2022-12-15T22:02:27.086Z,53.30
2022-12-15T22:07:34.588Z,51.47
2022-12-15T22:12:43.839Z,49.50
2022-12-15T22:17:51.830Z,53.90
2022-12-15T22:22:58.939Z,56.23
2022-12-15T22:28:06.608Z,54.23
2022-12-15T22:33:23.007Z,50.10
2022-12-15T22:38:30.383Z,54.27
2022-12-15T22:43:41.388Z,58.13
2022-12-15T22:48:49.474Z,72.50
2022-12-15T22:53:57.450Z,66.13
2022-12-15T22:59:08.749Z,66.50
2022-12-15T23:04:15.964Z,74.47
2022-12-15T23:09:22.739Z,76.17
2022-12-15T23:14:47.667Z,67.37
2022-12-15T23:19:54.788Z,65.37
2022-12-15T23:25:01.619Z,65.73
2022-12-15T23:30:10.404Z,63.47
2022-12-15T23:35:18.048Z,69.37
2022-12-15T23:40:25.246Z,66.73
2022-12-15T23:45:32.197Z,65.30
2022-12-15T23:50:40.459Z,64.90
2022-12-15T23:55:47.901Z,59.37
